Time;durP1;ratioP1;P1;durP2;ratioP2;P2;SDS_P1;SDS_P2;PMS_P1;PMS_P2;Temp;Humidity;BMP_temperature;BMP_pressure;BME280_temperature;BME280_humidity;BME280_pressure;Samples;Min_cycle;Max_cycle;Signal;HPM_P1;HPM_P2
2021/03/27 00:00:36;;;;;;;32.65;22.38;;;23.60;42.70;;;;;;6101488;28;83128;-63
2021/03/27 00:03:37;;;;;;;34.17;20.95;;;23.70;42.70;;;;;;6102316;28;84028;-62
2021/03/27 00:06:37;;;;;;;33.20;21.38;;;23.60;42.80;;;;;;6111531;28;84707;-63
2021/03/27 00:09:38;;;;;;;33.13;21.35;;;23.60;42.60;;;;;;6104409;28;83999;-63
2021/03/27 00:12:39;;;;;;;32.60;20.98;;;23.60;42.90;;;;;;6098367;28;88479;-63
2021/03/27 00:15:39;;;;;;;38.42;22.77;;;23.60;42.60;;;;;;6095927;28;83522;-63
2021/03/27 00:18:41;;;;;;;34.28;20.98;;;23.60;42.60;;;;;;6098353;28;84041;-63
2021/03/27 00:21:42;;;;;;;33.05;21.65;;;23.60;43.00;;;;;;6101860;28;83237;-63
2021/03/27 00:24:43;;;;;;;35.33;21.55;;;23.60;42.50;;;;;;6102588;28;83194;-63
2021/03/27 00:27:43;;;;;;;32.67;21.67;;;23.60;42.80;;;;;;6102299;28;83443;-64
2021/03/27 00:30:44;;;;;;;32.10;21.52;;;23.60;42.30;;;;;;6097745;28;83937;-63
2021/03/27 00:33:45;;;;;;;35.80;22.35;;;23.60;42.50;;;;;;6087194;28;83348;-63
2021/03/27 00:36:45;;;;;;;32.90;21.20;;;23.60;42.60;;;;;;6102635;28;83349;-63
2021/03/27 00:39:46;;;;;;;33.03;21.23;;;23.60;42.40;;;;;;6086131;28;83363;-63
2021/03/27 00:42:46;;;;;;;34.08;20.70;;;23.60;42.00;;;;;;6101568;28;83382;-63
2021/03/27 00:45:47;;;;;;;31.13;20.65;;;23.60;41.90;;;;;;6101287;28;83426;-63
2021/03/27 00:48:48;;;;;;;30.95;20.45;;;23.60;41.80;;;;;;6082988;28;86083;-63
2021/03/27 00:51:49;;;;;;;32.35;19.63;;;23.60;41.70;;;;;;6072961;28;90183;-64
2021/03/27 00:54:50;;;;;;;33.38;20.40;;;23.50;42.30;;;;;;6068033;28;89945;-64
2021/03/27 00:57:50;;;;;;;33.65;21.92;;;23.50;41.60;;;;;;6082160;28;85784;-63
2021/03/27 01:00:51;;;;;;;31.77;21.45;;;23.60;41.70;;;;;;6099377;28;85564;-63
2021/03/27 01:03:54;;;;;;;33.47;20.83;;;23.60;41.60;;;;;;6102619;28;83648;-63
2021/03/27 01:07:14;;;;;;;34.05;21.40;;;23.60;41.60;;;;;;6100738;28;91647;-62
2021/03/27 01:10:33;;;;;;;35.03;22.02;;;23.60;41.70;;;;;;6100709;28;83411;-63
2021/03/27 01:14:03;;;;;;;37.85;22.38;;;23.60;41.30;;;;;;6087146;28;83677;-63
2021/03/27 01:17:03;;;;;;;39.33;24.25;;;23.60;41.60;;;;;;6080041;28;85879;-61
2021/03/27 01:20:06;;;;;;;37.25;23.88;;;23.60;41.20;;;;;;6099835;28;84056;-62
2021/03/27 01:23:06;;;;;;;35.60;22.67;;;23.50;41.00;;;;;;6102056;28;83712;-62
2021/03/27 01:26:08;;;;;;;37.75;23.48;;;23.50;41.10;;;;;;6101270;28;83489;-63
2021/03/27 01:29:08;;;;;;;40.03;23.77;;;23.50;41.20;;;;;;6101172;28;85207;-62
2021/03/27 01:32:09;;;;;;;44.25;24.40;;;23.50;41.10;;;;;;6100897;28;89715;-61
2021/03/27 01:35:09;;;;;;;38.00;23.75;;;23.50;41.00;;;;;;6101374;28;83149;-62
2021/03/27 01:38:10;;;;;;;32.55;21.33;;;23.50;41.00;;;;;;6102597;28;83988;-64
2021/03/27 01:41:10;;;;;;;32.13;20.67;;;23.50;41.00;;;;;;6092440;28;83337;-62
2021/03/27 01:44:11;;;;;;;36.25;21.73;;;23.50;40.90;;;;;;6101701;28;83425;-62
2021/03/27 01:47:11;;;;;;;34.92;22.33;;;23.50;41.00;;;;;;6099425;28;83766;-62
2021/03/27 01:50:12;;;;;;;34.30;21.25;;;23.50;40.90;;;;;;6099928;28;83981;-62
2021/03/27 01:53:12;;;;;;;43.63;23.95;;;23.50;41.00;;;;;;6100704;28;84349;-62
2021/03/27 01:56:13;;;;;;;37.70;22.80;;;23.50;40.80;;;;;;6099258;28;83558;-63
2021/03/27 01:59:13;;;;;;;36.75;23.30;;;23.50;40.90;;;;;;6081959;28;84758;-62
2021/03/27 02:02:14;;;;;;;38.47;23.60;;;23.50;40.90;;;;;;6100817;28;84046;-62
2021/03/27 02:05:14;;;;;;;38.75;23.67;;;23.50;40.80;;;;;;6100058;28;83463;-63
2021/03/27 02:08:15;;;;;;;40.58;24.15;;;23.50;40.80;;;;;;6099456;28;84521;-63
2021/03/27 02:11:16;;;;;;;36.17;23.67;;;23.50;40.70;;;;;;6103104;28;84162;-62
2021/03/27 02:14:16;;;;;;;40.65;24.80;;;23.50;40.50;;;;;;6104832;28;83093;-65
2021/03/27 02:17:17;;;;;;;43.15;24.58;;;23.50;40.50;;;;;;6102860;28;83732;-62
2021/03/27 02:20:17;;;;;;;38.40;23.20;;;23.50;40.50;;;;;;6103113;28;84327;-61
2021/03/27 02:23:18;;;;;;;38.30;24.45;;;23.50;40.60;;;;;;6104709;28;83672;-62
2021/03/27 02:26:18;;;;;;;39.97;25.15;;;23.50;40.20;;;;;;6103231;28;84147;-62
2021/03/27 02:29:28;;;;;;;39.38;23.25;;;23.50;40.50;;;;;;6102885;28;85826;-62
2021/03/27 02:32:29;;;;;;;44.72;25.33;;;23.50;40.40;;;;;;6105834;28;84155;-63
2021/03/27 02:35:29;;;;;;;43.08;25.65;;;23.50;40.00;;;;;;6083803;28;83668;-63
2021/03/27 02:38:30;;;;;;;46.22;26.33;;;23.50;39.80;;;;;;6106075;28;83357;-63
2021/03/27 02:41:30;;;;;;;40.10;24.70;;;23.50;40.00;;;;;;6104404;28;83392;-63
2021/03/27 02:44:31;;;;;;;41.97;26.10;;;23.50;39.60;;;;;;6103952;28;83202;-63
2021/03/27 02:47:32;;;;;;;41.03;25.90;;;23.50;39.50;;;;;;6107952;28;85733;-63
2021/03/27 02:50:32;;;;;;;42.03;26.60;;;23.50;39.50;;;;;;6102685;28;83349;-63
2021/03/27 02:53:33;;;;;;;46.67;25.65;;;23.50;39.30;;;;;;6103788;28;83691;-63
2021/03/27 02:56:33;;;;;;;42.28;25.85;;;23.50;39.30;;;;;;6105784;28;83285;-63
2021/03/27 02:59:34;;;;;;;44.38;25.90;;;23.50;39.20;;;;;;6101400;28;84825;-63
2021/03/27 03:02:35;;;;;;;43.17;25.58;;;23.50;39.30;;;;;;6102075;28;83119;-63
2021/03/27 03:05:35;;;;;;;44.20;26.55;;;23.50;39.10;;;;;;6105175;28;83297;-63
2021/03/27 03:08:36;;;;;;;43.83;26.05;;;23.50;39.10;;;;;;6104427;28;84122;-63
2021/03/27 03:11:36;;;;;;;43.53;26.45;;;23.50;39.30;;;;;;6103404;28;84589;-62
2021/03/27 03:14:37;;;;;;;50.90;28.10;;;23.50;38.90;;;;;;6085780;28;86408;-63
2021/03/27 03:17:37;;;;;;;46.97;26.92;;;23.40;38.90;;;;;;6099741;28;84246;-63
2021/03/27 03:20:38;;;;;;;45.35;27.90;;;23.40;38.50;;;;;;6104498;28;83260;-62
2021/03/27 03:23:39;;;;;;;44.05;27.42;;;23.40;38.60;;;;;;6101094;28;85344;-64
2021/03/27 03:26:39;;;;;;;49.83;28.05;;;23.40;38.60;;;;;;6102518;28;83055;-62
2021/03/27 03:29:40;;;;;;;59.70;29.10;;;23.40;38.50;;;;;;6102475;28;83526;-62
2021/03/27 03:32:40;;;;;;;50.47;30.52;;;23.40;38.80;;;;;;6104239;28;84217;-62
2021/03/27 03:35:41;;;;;;;50.00;30.33;;;23.40;38.40;;;;;;6103141;28;83150;-62
2021/03/27 03:38:41;;;;;;;48.03;30.40;;;23.40;38.60;;;;;;6101442;28;82956;-62
2021/03/27 03:41:42;;;;;;;51.65;30.25;;;23.40;38.20;;;;;;6103874;28;83437;-62
2021/03/27 03:44:43;;;;;;;54.90;32.38;;;23.40;38.10;;;;;;6103703;28;83543;-63
2021/03/27 03:47:43;;;;;;;52.78;30.35;;;23.40;38.00;;;;;;6098279;28;83292;-63
2021/03/27 03:50:44;;;;;;;52.20;31.73;;;23.40;38.20;;;;;;6099773;28;84132;-63
2021/03/27 03:53:44;;;;;;;50.97;31.17;;;23.40;37.70;;;;;;6102050;28;83761;-62
2021/03/27 03:56:45;;;;;;;47.92;30.63;;;23.40;37.70;;;;;;6103167;28;84135;-62
2021/03/27 03:59:45;;;;;;;58.42;33.90;;;23.40;37.90;;;;;;6103197;28;83080;-62
2021/03/27 04:02:46;;;;;;;53.45;30.63;;;23.40;38.00;;;;;;6099862;28;84103;-64
2021/03/27 04:05:46;;;;;;;51.60;31.80;;;23.40;37.60;;;;;;6101511;28;89376;-64
2021/03/27 04:08:47;;;;;;;57.00;32.50;;;23.40;37.50;;;;;;6102343;28;84608;-61
2021/03/27 04:11:48;;;;;;;49.20;30.23;;;23.40;37.80;;;;;;6102107;28;83342;-62
2021/03/27 04:14:48;;;;;;;53.05;31.23;;;23.40;37.30;;;;;;6094295;28;83367;-62
2021/03/27 04:17:49;;;;;;;52.97;32.35;;;23.40;37.10;;;;;;6090623;28;83914;-62
2021/03/27 04:20:49;;;;;;;54.80;32.58;;;23.30;36.90;;;;;;6084556;28;84879;-62
2021/03/27 04:23:50;;;;;;;53.97;32.10;;;23.40;37.20;;;;;;6105095;28;84266;-62
2021/03/27 04:26:50;;;;;;;59.97;34.72;;;23.40;36.80;;;;;;6096696;28;84257;-63
2021/03/27 04:29:51;;;;;;;55.90;33.28;;;23.30;36.80;;;;;;6095559;28;84167;-62
2021/03/27 04:32:51;;;;;;;56.83;33.10;;;23.40;36.80;;;;;;6100033;28;83406;-63
2021/03/27 04:35:52;;;;;;;53.13;32.45;;;23.40;36.40;;;;;;6079707;28;87671;-62
2021/03/27 04:38:52;;;;;;;55.90;34.22;;;23.40;36.80;;;;;;6102037;28;83966;-62
2021/03/27 04:41:53;;;;;;;55.58;33.13;;;23.40;36.50;;;;;;6099776;28;85045;-63
2021/03/27 04:44:54;;;;;;;55.97;33.40;;;23.40;36.50;;;;;;6101904;28;83400;-63
2021/03/27 04:47:54;;;;;;;54.65;31.10;;;23.40;36.60;;;;;;6101199;28;83884;-62
2021/03/27 04:50:55;;;;;;;55.45;33.38;;;23.40;36.20;;;;;;6102014;28;83050;-62
2021/03/27 04:53:56;;;;;;;59.47;33.42;;;23.40;34.60;;;;;;6102396;28;83490;-63
2021/03/27 04:56:56;;;;;;;56.88;33.67;;;23.40;34.60;;;;;;6100928;28;83327;-63
2021/03/27 04:59:57;;;;;;;56.40;33.78;;;23.40;34.30;;;;;;6098948;28;87191;-62
2021/03/27 05:02:57;;;;;;;52.33;32.97;;;23.40;35.10;;;;;;6097003;28;82885;-63
2021/03/27 05:06:01;;;;;;;55.65;33.53;;;23.40;36.20;;;;;;6101852;28;83158;-62
2021/03/27 05:09:01;;;;;;;55.80;33.70;;;23.40;36.10;;;;;;6101559;28;83558;-62
2021/03/27 05:12:02;;;;;;;56.03;34.83;;;23.40;35.60;;;;;;6099909;28;85656;-62
2021/03/27 05:15:03;;;;;;;61.53;35.17;;;23.40;34.90;;;;;;6110442;28;83911;-62
2021/03/27 05:18:03;;;;;;;58.50;34.80;;;23.40;34.40;;;;;;6097115;28;83301;-63
2021/03/27 05:21:04;;;;;;;56.97;34.80;;;23.40;34.70;;;;;;6110755;28;83335;-62
2021/03/27 05:24:04;;;;;;;57.70;35.42;;;23.40;34.30;;;;;;6075595;28;83124;-62
2021/03/27 05:27:05;;;;;;;50.15;32.17;;;23.50;34.60;;;;;;6100737;28;83430;-63
2021/03/27 05:30:05;;;;;;;56.60;33.72;;;23.50;34.90;;;;;;6099952;28;83160;-63
2021/03/27 05:33:06;;;;;;;56.85;34.38;;;23.50;33.90;;;;;;6100505;28;83928;-62
2021/03/27 05:36:06;;;;;;;52.53;33.75;;;23.50;33.80;;;;;;6101004;28;84459;-63
2021/03/27 05:39:07;;;;;;;55.10;33.50;;;23.50;33.80;;;;;;6063929;28;86625;-62
2021/03/27 05:42:07;;;;;;;52.85;32.10;;;23.60;33.80;;;;;;6099818;28;83514;-63
2021/03/27 05:45:08;;;;;;;44.58;27.38;;;23.60;33.80;;;;;;6100494;28;83900;-64
2021/03/27 05:48:09;;;;;;;41.80;24.40;;;23.60;34.60;;;;;;6105042;28;84752;-64
2021/03/27 05:51:09;;;;;;;32.75;20.30;;;23.50;35.20;;;;;;6104294;28;85594;-65
2021/03/27 05:54:10;;;;;;;27.70;18.33;;;23.60;35.30;;;;;;6104094;28;83617;-64
2021/03/27 05:57:11;;;;;;;24.60;15.90;;;23.50;35.40;;;;;;6104194;28;83580;-65
2021/03/27 06:00:11;;;;;;;26.20;15.65;;;23.50;35.40;;;;;;6098153;28;83324;-65
2021/03/27 06:03:12;;;;;;;23.38;14.52;;;23.50;35.50;;;;;;6097758;28;86545;-65
2021/03/27 06:06:12;;;;;;;156.50;62.65;;;23.50;35.30;;;;;;6101907;28;84052;-64
2021/03/27 06:09:13;;;;;;;314.33;117.97;;;23.50;35.50;;;;;;6091011;28;83798;-64
2021/03/27 06:12:15;;;;;;;390.30;145.57;;;23.50;35.60;;;;;;6102106;28;86125;-65
2021/03/27 06:15:16;;;;;;;351.95;133.02;;;23.60;35.60;;;;;;6100838;28;85943;-65
2021/03/27 06:18:17;;;;;;;506.48;194.07;;;23.60;35.60;;;;;;6100973;28;85551;-64
2021/03/27 06:21:17;;;;;;;574.80;231.80;;;23.60;35.70;;;;;;6093696;28;89228;-64
2021/03/27 06:24:18;;;;;;;474.38;173.68;;;23.60;36.40;;;;;;6096279;28;86236;-66
2021/03/27 06:27:18;;;;;;;329.98;125.47;;;23.70;35.80;;;;;;6095597;28;86163;-64
2021/03/27 06:30:19;;;;;;;239.85;99.15;;;23.60;35.60;;;;;;6100405;28;85752;-65
2021/03/27 06:33:19;;;;;;;207.18;82.55;;;23.70;35.60;;;;;;6098505;28;86220;-64
2021/03/27 06:36:20;;;;;;;165.60;66.40;;;23.70;35.60;;;;;;6104951;28;83827;-64
2021/03/27 06:39:21;;;;;;;129.98;53.42;;;23.70;35.70;;;;;;6104437;28;83500;-65
2021/03/27 06:42:21;;;;;;;120.28;48.63;;;23.80;35.90;;;;;;6103698;28;83936;-66
2021/03/27 06:45:22;;;;;;;106.38;41.78;;;23.70;36.60;;;;;;6103086;28;83437;-66
2021/03/27 06:48:23;;;;;;;79.82;35.03;;;23.80;36.90;;;;;;6100175;28;84302;-64
2021/03/27 06:51:23;;;;;;;76.85;32.38;;;23.90;37.50;;;;;;6102855;28;83857;-65
2021/03/27 06:54:24;;;;;;;64.25;29.17;;;23.90;37.60;;;;;;6102905;28;83460;-65
2021/03/27 06:57:24;;;;;;;60.45;27.38;;;23.90;38.00;;;;;;6100274;28;83397;-66
2021/03/27 07:00:25;;;;;;;60.60;28.02;;;24.00;38.10;;;;;;6101189;28;85867;-65
2021/03/27 07:03:25;;;;;;;56.45;26.08;;;24.00;38.30;;;;;;6102892;28;83522;-66
2021/03/27 07:06:26;;;;;;;60.03;23.67;;;23.90;38.20;;;;;;6100205;28;83411;-64
2021/03/27 07:09:27;;;;;;;45.70;20.98;;;24.00;38.30;;;;;;6098433;28;84106;-66
2021/03/27 07:12:27;;;;;;;40.70;19.27;;;24.00;38.30;;;;;;6103621;28;86989;-64
2021/03/27 07:15:28;;;;;;;38.92;17.75;;;23.90;38.40;;;;;;6102407;28;84129;-64
2021/03/27 07:18:28;;;;;;;31.95;15.93;;;23.90;38.40;;;;;;6102776;28;83343;-64
2021/03/27 07:21:29;;;;;;;29.88;16.02;;;23.90;38.50;;;;;;6098075;28;83645;-65
2021/03/27 07:24:29;;;;;;;39.33;16.10;;;23.90;38.60;;;;;;6101674;28;83694;-65
2021/03/27 07:27:30;;;;;;;31.30;15.90;;;23.90;38.70;;;;;;6099358;28;83441;-65
2021/03/27 07:30:30;;;;;;;30.40;14.63;;;23.90;38.60;;;;;;6079658;28;85612;-65
2021/03/27 07:33:31;;;;;;;30.25;13.35;;;23.90;38.40;;;;;;6100253;28;83305;-65
2021/03/27 07:36:32;;;;;;;25.75;13.40;;;23.90;38.40;;;;;;6070274;28;84010;-65
2021/03/27 07:39:32;;;;;;;23.58;11.63;;;23.90;38.60;;;;;;6076648;28;83871;-65
2021/03/27 07:42:33;;;;;;;24.25;12.32;;;23.90;38.70;;;;;;6095989;28;84160;-65
2021/03/27 07:45:34;;;;;;;19.15;10.73;;;23.90;38.60;;;;;;6083541;28;85464;-66
2021/03/27 07:48:34;;;;;;;18.40;11.57;;;23.90;38.60;;;;;;6100254;28;83479;-66
2021/03/27 07:51:35;;;;;;;24.35;12.57;;;24.00;38.40;;;;;;6100953;28;83697;-66
2021/03/27 07:54:35;;;;;;;18.77;10.80;;;23.90;38.30;;;;;;6103204;28;82983;-67
2021/03/27 07:57:36;;;;;;;16.10;9.30;;;23.90;38.00;;;;;;6103790;28;84040;-67
2021/03/27 08:00:36;;;;;;;15.68;9.15;;;23.90;37.70;;;;;;6104769;28;84107;-65
2021/03/27 08:03:37;;;;;;;11.82;6.88;;;23.90;37.30;;;;;;6097745;28;80520;-65
2021/03/27 08:06:37;;;;;;;12.35;6.95;;;23.90;37.10;;;;;;6102844;28;81617;-66
2021/03/27 08:09:38;;;;;;;11.57;6.38;;;23.80;36.90;;;;;;6104868;28;80355;-66
2021/03/27 08:12:38;;;;;;;9.60;5.43;;;23.80;36.80;;;;;;6083740;28;83586;-66
2021/03/27 08:15:39;;;;;;;10.57;5.63;;;23.80;36.90;;;;;;6105813;28;87823;-64
2021/03/27 08:18:40;;;;;;;13.60;6.40;;;23.80;36.90;;;;;;6104844;28;81220;-64
2021/03/27 08:21:40;;;;;;;15.60;5.65;;;23.80;37.00;;;;;;6102616;28;80501;-64
2021/03/27 08:24:41;;;;;;;14.98;5.65;;;23.90;37.10;;;;;;6105018;28;81799;-65
2021/03/27 08:27:41;;;;;;;11.82;5.97;;;23.90;37.10;;;;;;6085721;28;80740;-64
2021/03/27 08:30:42;;;;;;;11.43;6.20;;;23.90;37.10;;;;;;6104047;28;80687;-64
2021/03/27 08:33:42;;;;;;;14.20;5.90;;;23.90;37.40;;;;;;6100629;28;80719;-65
2021/03/27 08:36:43;;;;;;;10.43;5.35;;;23.90;37.40;;;;;;6102874;28;81390;-65
2021/03/27 08:39:44;;;;;;;10.38;4.65;;;23.90;37.60;;;;;;6104977;28;80115;-64
2021/03/27 08:42:44;;;;;;;8.85;4.38;;;23.90;37.70;;;;;;6105008;28;84676;-65
2021/03/27 08:45:45;;;;;;;8.88;4.25;;;23.90;37.90;;;;;;6104516;28;81367;-64
2021/03/27 08:48:45;;;;;;;8.63;5.22;;;23.90;37.90;;;;;;6087248;28;82139;-65
2021/03/27 08:51:46;;;;;;;7.30;4.38;;;23.90;37.90;;;;;;6101670;28;81182;-64
2021/03/27 08:54:46;;;;;;;6.78;3.67;;;24.00;38.00;;;;;;6101670;28;80890;-65
2021/03/27 08:57:47;;;;;;;8.13;4.25;;;24.00;38.00;;;;;;6101788;28;81144;-64
2021/03/27 09:00:47;;;;;;;6.15;3.70;;;24.00;38.10;;;;;;6097897;28;81347;-65
2021/03/27 09:03:48;;;;;;;7.53;3.78;;;24.00;37.90;;;;;;6106085;28;80595;-64
2021/03/27 09:06:48;;;;;;;6.63;3.25;;;24.00;37.90;;;;;;6104333;28;80308;-65
2021/03/27 09:09:49;;;;;;;4.75;3.05;;;24.00;37.80;;;;;;6103872;28;85498;-64
2021/03/27 09:12:50;;;;;;;5.05;3.38;;;24.00;37.60;;;;;;6090522;28;80712;-65
2021/03/27 09:15:50;;;;;;;5.25;3.30;;;24.00;37.60;;;;;;6104782;28;84766;-63
2021/03/27 09:18:51;;;;;;;4.68;3.28;;;24.00;37.60;;;;;;6102774;28;81477;-64
2021/03/27 09:21:51;;;;;;;4.25;3.13;;;24.00;37.60;;;;;;6087019;28;80825;-64
2021/03/27 09:24:52;;;;;;;5.43;3.08;;;24.00;37.70;;;;;;6101889;28;82616;-64
2021/03/27 09:27:52;;;;;;;5.28;3.10;;;24.10;37.70;;;;;;6103703;28;81265;-64
2021/03/27 09:30:53;;;;;;;3.75;3.22;;;24.10;37.50;;;;;;6100119;28;81787;-64
2021/03/27 09:33:53;;;;;;;3.03;2.67;;;24.10;37.40;;;;;;6088825;28;81265;-64
2021/03/27 09:36:54;;;;;;;3.75;2.58;;;24.10;37.40;;;;;;6103195;28;81816;-64
2021/03/27 09:39:54;;;;;;;4.53;2.90;;;24.10;37.30;;;;;;6100135;28;80390;-64
2021/03/27 09:42:55;;;;;;;4.70;2.70;;;24.10;37.30;;;;;;6105079;28;80962;-65
2021/03/27 09:45:55;;;;;;;3.47;3.03;;;24.10;37.80;;;;;;6104425;28;80574;-64
2021/03/27 09:48:56;;;;;;;5.22;4.13;;;24.20;37.90;;;;;;6071594;28;84563;-65
2021/03/27 09:51:57;;;;;;;7.75;4.15;;;24.30;38.60;;;;;;6098467;28;80823;-65
2021/03/27 09:54:57;;;;;;;10.40;4.80;;;24.40;38.50;;;;;;6099989;28;80741;-65
2021/03/27 09:57:58;;;;;;;8.63;5.30;;;24.40;38.50;;;;;;6098237;28;80948;-64
2021/03/27 10:00:59;;;;;;;8.68;5.75;;;24.50;38.80;;;;;;6094137;28;83118;-64
2021/03/27 10:03:59;;;;;;;12.43;6.18;;;24.50;38.70;;;;;;6097570;28;81494;-65
2021/03/27 10:07:00;;;;;;;12.68;6.63;;;24.60;39.30;;;;;;6096345;28;81097;-68
2021/03/27 10:10:01;;;;;;;11.05;6.45;;;24.60;38.80;;;;;;6097688;28;81339;-68
2021/03/27 10:13:02;;;;;;;12.30;6.43;;;24.70;39.00;;;;;;6099849;28;80573;-68
2021/03/27 10:16:03;;;;;;;11.18;6.15;;;24.70;38.60;;;;;;6101696;28;81476;-66
2021/03/27 10:19:03;;;;;;;9.93;5.85;;;24.70;38.90;;;;;;6103910;28;81233;-68
2021/03/27 10:22:04;;;;;;;11.85;6.13;;;24.70;38.60;;;;;;6094770;28;80257;-68
2021/03/27 10:25:04;;;;;;;10.32;6.55;;;24.70;39.10;;;;;;6100793;28;80907;-67
2021/03/27 10:28:05;;;;;;;11.32;5.95;;;24.80;39.30;;;;;;6098240;28;80876;-67
2021/03/27 10:31:06;;;;;;;15.18;6.35;;;24.80;38.60;;;;;;6105509;28;80970;-67
2021/03/27 10:34:07;;;;;;;11.07;7.13;;;24.80;38.80;;;;;;6104966;28;81161;-66
2021/03/27 10:37:07;;;;;;;13.65;7.15;;;24.80;39.40;;;;;;6107522;28;80960;-67
2021/03/27 10:40:08;;;;;;;13.70;7.00;;;24.80;37.10;;;;;;6103429;28;80434;-66
2021/03/27 10:43:08;;;;;;;15.10;6.88;;;24.80;37.20;;;;;;6102310;28;81268;-66
2021/03/27 10:46:09;;;;;;;11.13;6.75;;;24.80;37.50;;;;;;6101195;28;80638;-65
2021/03/27 10:49:10;;;;;;;12.15;7.03;;;24.90;37.30;;;;;;6097107;28;84977;-67
2021/03/27 10:52:10;;;;;;;14.48;6.43;;;24.90;38.00;;;;;;6105114;28;80929;-65
2021/03/27 10:55:11;;;;;;;13.20;6.22;;;24.90;38.30;;;;;;6105720;28;81716;-65
2021/03/27 10:58:11;;;;;;;13.05;6.38;;;24.90;39.50;;;;;;6087327;28;81605;-65
2021/03/27 11:01:12;;;;;;;7.75;5.78;;;24.90;39.20;;;;;;6101848;28;81498;-64
2021/03/27 11:04:12;;;;;;;13.02;6.10;;;25.00;39.90;;;;;;6100241;28;80572;-65
2021/03/27 11:07:13;;;;;;;8.75;5.70;;;25.00;39.30;;;;;;6096943;28;80989;-65
2021/03/27 11:10:13;;;;;;;27.85;6.03;;;25.00;39.00;;;;;;6084238;28;81790;-64
2021/03/27 11:13:14;;;;;;;9.23;5.80;;;25.00;39.30;;;;;;6107588;28;80832;-66
2021/03/27 11:16:14;;;;;;;9.50;6.43;;;25.00;38.20;;;;;;6106148;28;81532;-65
2021/03/27 11:19:15;;;;;;;10.57;6.22;;;25.00;39.40;;;;;;6107265;28;80705;-67
2021/03/27 11:22:15;;;;;;;9.13;5.30;;;24.90;38.10;;;;;;6106798;28;80797;-67
2021/03/27 11:25:16;;;;;;;8.35;5.43;;;25.00;38.00;;;;;;6096404;28;81331;-65
2021/03/27 11:28:17;;;;;;;10.32;6.28;;;24.90;38.50;;;;;;6092208;28;80637;-65
2021/03/27 11:31:17;;;;;;;9.35;6.00;;;24.90;38.70;;;;;;6075349;28;83165;-66
2021/03/27 11:34:18;;;;;;;9.45;5.50;;;24.90;38.60;;;;;;6105266;28;80721;-64
2021/03/27 11:37:18;;;;;;;12.80;6.25;;;24.80;38.00;;;;;;6104289;28;80862;-66
2021/03/27 11:40:19;;;;;;;9.68;6.15;;;24.80;38.20;;;;;;6106435;28;80397;-66
2021/03/27 11:43:19;;;;;;;11.80;5.53;;;24.90;38.40;;;;;;6110739;28;80814;-65
2021/03/27 11:46:20;;;;;;;9.18;4.85;;;24.80;38.60;;;;;;6103602;28;81592;-66
2021/03/27 11:49:20;;;;;;;8.65;5.32;;;24.90;39.30;;;;;;6103818;28;80488;-65
2021/03/27 11:52:21;;;;;;;7.20;4.75;;;24.90;38.80;;;;;;6106777;28;80732;-66
2021/03/27 11:55:22;;;;;;;11.52;5.60;;;24.90;39.10;;;;;;6105522;28;81672;-66
2021/03/27 11:58:22;;;;;;;10.90;5.68;;;24.90;38.60;;;;;;6106236;28;80901;-66
2021/03/27 12:01:23;;;;;;;10.10;5.47;;;24.90;38.30;;;;;;6107951;28;80825;-64
2021/03/27 12:04:23;;;;;;;8.27;5.88;;;24.90;38.00;;;;;;6094486;28;83260;-64
2021/03/27 12:07:24;;;;;;;9.63;5.63;;;24.90;38.20;;;;;;6098773;28;88784;-62
2021/03/27 12:10:25;;;;;;;10.90;5.90;;;24.90;37.70;;;;;;6098396;28;80328;-66
2021/03/27 12:13:25;;;;;;;8.82;5.75;;;24.90;37.20;;;;;;6105291;28;81709;-65
2021/03/27 12:16:26;;;;;;;7.50;5.22;;;24.80;37.50;;;;;;6104319;28;80766;-63
2021/03/27 12:19:26;;;;;;;12.60;5.70;;;24.80;37.10;;;;;;6099093;28;80961;-66
2021/03/27 12:22:27;;;;;;;7.85;5.72;;;24.80;37.30;;;;;;6094496;28;80377;-67
2021/03/27 12:25:29;;;;;;;13.52;5.57;;;24.80;37.10;;;;;;6103233;28;81745;-65
2021/03/27 12:28:29;;;;;;;7.68;5.00;;;24.80;37.40;;;;;;6105185;28;81086;-63
2021/03/27 12:31:30;;;;;;;7.78;5.18;;;24.80;37.60;;;;;;6096896;28;85974;-66
2021/03/27 12:34:31;;;;;;;7.80;5.72;;;24.90;36.90;;;;;;6095201;28;80467;-65
2021/03/27 12:37:31;;;;;;;10.27;5.35;;;24.80;36.40;;;;;;6096420;28;80648;-65
2021/03/27 12:40:32;;;;;;;8.73;5.65;;;24.90;36.60;;;;;;6098512;28;81322;-64
2021/03/27 12:43:32;;;;;;;9.18;5.45;;;24.90;36.40;;;;;;6060270;28;80750;-66
2021/03/27 12:46:33;;;;;;;9.88;7.35;;;24.90;35.70;;;;;;6101168;28;81536;-66
2021/03/27 12:49:33;;;;;;;15.00;9.77;;;24.90;36.40;;;;;;6096635;28;81079;-67
2021/03/27 12:52:34;;;;;;;20.50;12.18;;;24.90;36.30;;;;;;6099819;28;80707;-66
2021/03/27 12:55:35;;;;;;;28.35;16.38;;;24.80;36.20;;;;;;6097589;28;83465;-65
2021/03/27 12:58:37;;;;;;;30.45;18.27;;;24.80;36.20;;;;;;6098714;28;87068;-67
2021/03/27 13:01:38;;;;;;;32.58;20.85;;;24.90;36.20;;;;;;6072199;28;751609;-63
2021/03/27 13:04:38;;;;;;;38.28;20.98;;;24.80;36.50;;;;;;6092086;28;83441;-65
2021/03/27 13:07:39;;;;;;;27.92;18.30;;;24.80;37.20;;;;;;6094268;28;84084;-64
2021/03/27 13:10:40;;;;;;;28.83;19.15;;;24.90;35.50;;;;;;6082710;28;83955;-64
2021/03/27 13:13:40;;;;;;;28.85;18.05;;;24.80;35.40;;;;;;6098709;28;83369;-64
2021/03/27 13:16:41;;;;;;;26.73;16.48;;;24.80;35.30;;;;;;6096844;28;83319;-63
2021/03/27 13:19:41;;;;;;;25.05;16.30;;;24.80;34.80;;;;;;6097194;28;84953;-65
2021/03/27 13:22:42;;;;;;;25.98;15.52;;;24.80;34.60;;;;;;6095398;28;84341;-65
2021/03/27 13:25:42;;;;;;;23.95;15.77;;;24.80;34.50;;;;;;6097323;28;83587;-63
2021/03/27 13:28:43;;;;;;;25.75;15.73;;;24.70;34.10;;;;;;6097431;28;90943;-63
2021/03/27 13:31:44;;;;;;;20.45;14.23;;;24.70;34.00;;;;;;6098727;28;83575;-63
2021/03/27 13:34:44;;;;;;;20.25;13.00;;;24.70;33.70;;;;;;6098721;28;83492;-65
2021/03/27 13:37:45;;;;;;;19.17;11.88;;;24.70;33.50;;;;;;6096679;28;83353;-66
2021/03/27 13:40:45;;;;;;;16.05;11.48;;;24.70;33.30;;;;;;6098475;28;84377;-65
2021/03/27 13:43:46;;;;;;;16.40;10.57;;;24.70;32.60;;;;;;6082299;28;85911;-67
2021/03/27 13:46:46;;;;;;;17.75;10.07;;;24.70;32.80;;;;;;6097589;28;84340;-65
2021/03/27 13:49:47;;;;;;;14.80;10.30;;;24.70;33.20;;;;;;6099900;28;83247;-66
2021/03/27 13:52:47;;;;;;;16.23;9.95;;;24.70;32.80;;;;;;6098493;28;83644;-64
2021/03/27 13:55:48;;;;;;;13.93;9.65;;;24.70;34.10;;;;;;6094997;28;82712;-66
2021/03/27 13:58:48;;;;;;;14.45;10.38;;;24.70;33.40;;;;;;6101531;28;80685;-64
2021/03/27 14:01:49;;;;;;;17.92;9.20;;;24.70;33.00;;;;;;6089311;28;83388;-65
2021/03/27 14:04:50;;;;;;;16.35;9.75;;;24.60;33.10;;;;;;6097654;28;82929;-65
2021/03/27 14:07:50;;;;;;;13.70;8.95;;;24.60;33.40;;;;;;6104466;28;81135;-64
2021/03/27 14:10:51;;;;;;;12.40;8.43;;;24.60;33.40;;;;;;6106539;28;80699;-64
2021/03/27 14:13:52;;;;;;;15.95;10.10;;;24.60;33.50;;;;;;6105363;28;81645;-65
2021/03/27 14:16:52;;;;;;;12.45;8.60;;;24.60;33.60;;;;;;6099780;28;84295;-65
2021/03/27 14:19:53;;;;;;;12.02;7.68;;;24.60;34.10;;;;;;6106741;28;89559;-66
2021/03/27 14:22:53;;;;;;;14.60;9.10;;;24.60;34.00;;;;;;6103765;28;81524;-66
2021/03/27 14:25:54;;;;;;;11.27;7.78;;;24.60;34.10;;;;;;6100513;28;80784;-63
2021/03/27 14:28:54;;;;;;;11.02;8.48;;;24.60;34.10;;;;;;6106356;28;80333;-65
2021/03/27 14:31:55;;;;;;;14.30;7.97;;;24.60;34.00;;;;;;6104519;28;80932;-64
2021/03/27 14:34:58;;;;;;;10.57;7.60;;;24.60;34.50;;;;;;6084609;28;80828;-64
2021/03/27 14:37:59;;;;;;;11.05;7.30;;;24.60;34.90;;;;;;6111270;28;83823;-66
2021/03/27 14:40:59;;;;;;;14.60;7.88;;;24.60;35.50;;;;;;6084189;28;83236;-66
2021/03/27 14:44:00;;;;;;;11.27;7.30;;;24.60;36.30;;;;;;6087721;28;81835;-66
2021/03/27 14:47:00;;;;;;;11.48;7.30;;;24.60;36.40;;;;;;6100570;28;81604;-67
2021/03/27 14:50:01;;;;;;;12.13;7.65;;;24.70;37.00;;;;;;6105453;28;82202;-62
2021/03/27 14:53:02;;;;;;;12.45;7.03;;;24.60;36.60;;;;;;6108192;28;80717;-63
2021/03/27 14:56:03;;;;;;;9.73;6.57;;;24.60;36.70;;;;;;6105490;28;81045;-62
2021/03/27 14:59:03;;;;;;;10.95;7.28;;;24.70;37.80;;;;;;6106701;28;80649;-64
2021/03/27 15:02:04;;;;;;;10.70;7.45;;;24.70;37.50;;;;;;6104047;28;80834;-63
2021/03/27 15:05:04;;;;;;;10.98;7.10;;;24.60;37.70;;;;;;6102251;28;82041;-63
2021/03/27 15:08:05;;;;;;;10.98;7.10;;;24.60;37.70;;;;;;6105031;28;80910;-62
2021/03/27 15:11:05;;;;;;;10.63;6.75;;;24.60;37.60;;;;;;6103053;28;80846;-62
2021/03/27 15:14:06;;;;;;;10.43;7.05;;;24.60;37.90;;;;;;6095020;28;81366;-63
2021/03/27 15:17:06;;;;;;;9.07;6.70;;;24.70;37.50;;;;;;6103653;28;80780;-64
2021/03/27 15:20:07;;;;;;;11.70;6.85;;;24.70;37.60;;;;;;6106201;28;81643;-63
2021/03/27 15:23:08;;;;;;;8.85;6.63;;;24.70;38.00;;;;;;6106610;28;80447;-65